Aérodrome :
LOGIN :

S'inscrire | Disclaimer

   EN    FR    IT 

 










Légende :    VFR   VFR Marginal   IFR   IFR Intensif   IFR Très Intensif
Visi : 
Plafond : 
>= 8 km
>= 3000ft
5 à 8 km
1000 à 3000 ft
1500m à 5 km
500 à 1000 ft
800 à 1500m
200 à 500 ft
< 800m
< 200 ft
Symboles :   Orages  Brouillard  Fortes neiges  Fortes précipitations  Vent > 20 kt
SIGMETs :   Divers  Orages  Givrage  Turbulence  Onde Orograph.  Cendres Volcan.






- Altitude de l'aérodrome : 405 ft
- Code IATA : ODH


EGVO - RAF Odiham

DERNIER METAR :
  • 251550Z 25021KT 9999 -SHRA BKN017CB SCT050 04/02 Q0997 WHT TEMPO 3000 SHRASN SCT014 BKN018CB RMK WHT TEMPO YLO1

METARs EXPIRÉS :
  • 251543Z 24014G26KT 9999 SHRA SCT019CB BKN050 06/02 Q0997 TEMPO 3000 SHRASN SCT014 BKN020CB RMK WHT TEMPO YLO1
  • 251520Z 23012KT 9999 FEW018 BKN080 06/02 Q0997 TEMPO 3000 -SHRASN SCT012 BKN020CB RMK BLU TEMPO YLO1
  • 251450Z 25013KT 9999 VCSH FEW018 SCT070 06/01 Q0997 TEMPO 4000 SHRA BKN014CB RMK BLU TEMPO GRN
  • 251420Z 25012KT 9999 FEW015 06/03 Q0998 TEMPO 4000 SHRA SCT014 BKN020CB RMK BLU TEMPO WHT
  • 251350Z 26012KT 9999 SCT026 06/04 Q0999 NOSIG RMK BLU BLU
  • 251320Z 25018G31KT 9999 -SHRA BKN023 SCT040 07/02 Q0999 TEMPO FEW023 RMK WHT TEMPO BLU

TAF TAF EGVO
Valide du 25 à 15h jusqu'au 26 à 03h UTC


251343Z 2515/2603 26014KT 9999 FEW030
PROB40
TEMPO 2515/2520 26016G26KT 4000 SHRA SCT014 BKN020CB
PROB30
TEMPO 2520/2523 -SHRA SCT022



MET'MAP, la Météo Aéronautique d'un coup d'oeil ! - Copyright ORBIFLY Décembre 2007 - Disclaimer

ORBIFLY MET'MAP TEAM :

Programmation & Développement : Alexandra Zaïnal
Sur une idée originale de : Baudouin d'Aumeries
Assistance à la programmation : Marc-Olivier Méhu
Soutien technique & logistique : Manuel Goepfert

Contact : metmap@orbifly.com




SOURCES & CREDITS :

   NOAA